sensor_id;sensor_type;location;lat;lon;timestamp;temperature;humidity
25825;DHT22;13658;44.534;18.694;2023-02-01T00:01:40;0.30;99.90
25825;DHT22;13658;44.534;18.694;2023-02-01T00:04:06;0.30;99.90
25825;DHT22;13658;44.534;18.694;2023-02-01T00:06:32;0.30;99.90
25825;DHT22;13658;44.534;18.694;2023-02-01T00:08:58;0.30;99.90
25825;DHT22;13658;44.534;18.694;2023-02-01T00:11:24;0.20;99.90
25825;DHT22;13658;44.534;18.694;2023-02-01T00:13:51;0.20;99.90
25825;DHT22;13658;44.534;18.694;2023-02-01T00:16:19;0.20;99.90
25825;DHT22;13658;44.534;18.694;2023-02-01T00:18:48;0.20;99.90
25825;DHT22;13658;44.534;18.694;2023-02-01T00:21:15;0.20;99.90
25825;DHT22;13658;44.534;18.694;2023-02-01T00:23:42;0.30;99.90
25825;DHT22;13658;44.534;18.694;2023-02-01T00:26:15;0.30;99.90
25825;DHT22;13658;44.534;18.694;2023-02-01T00:28:41;0.40;99.90
25825;DHT22;13658;44.534;18.694;2023-02-01T00:31:07;0.50;99.90
25825;DHT22;13658;44.534;18.694;2023-02-01T00:33:33;0.50;99.90
25825;DHT22;13658;44.534;18.694;2023-02-01T00:36:02;0.40;99.90
25825;DHT22;13658;44.534;18.694;2023-02-01T00:38:29;0.40;99.90
25825;DHT22;13658;44.534;18.694;2023-02-01T00:41:03;0.30;99.90
25825;DHT22;13658;44.534;18.694;2023-02-01T00:43:31;0.30;99.90
25825;DHT22;13658;44.534;18.694;2023-02-01T00:45:57;0.30;99.90
25825;DHT22;13658;44.534;18.694;2023-02-01T00:48:24;0.30;99.90
25825;DHT22;13658;44.534;18.694;2023-02-01T00:50:51;0.30;99.90
25825;DHT22;13658;44.534;18.694;2023-02-01T00:53:17;0.30;99.90
25825;DHT22;13658;44.534;18.694;2023-02-01T00:55:49;0.30;99.90
25825;DHT22;13658;44.534;18.694;2023-02-01T00:58:15;0.40;99.90
25825;DHT22;13658;44.534;18.694;2023-02-01T01:00:41;0.40;99.90
25825;DHT22;13658;44.534;18.694;2023-02-01T01:03:07;0.40;99.90
25825;DHT22;13658;44.534;18.694;2023-02-01T01:05:47;0.50;99.90
25825;DHT22;13658;44.534;18.694;2023-02-01T01:08:14;0.50;99.90
25825;DHT22;13658;44.534;18.694;2023-02-01T01:10:41;0.50;99.90
25825;DHT22;13658;44.534;18.694;2023-02-01T01:13:08;0.50;99.90
25825;DHT22;13658;44.534;18.694;2023-02-01T01:15:38;0.60;99.90
25825;DHT22;13658;44.534;18.694;2023-02-01T01:18:05;0.70;99.90
25825;DHT22;13658;44.534;18.694;2023-02-01T01:20:33;0.70;99.90
25825;DHT22;13658;44.534;18.694;2023-02-01T01:23:00;0.80;99.90
25825;DHT22;13658;44.534;18.694;2023-02-01T01:25:26;0.70;99.90
25825;DHT22;13658;44.534;18.694;2023-02-01T01:27:52;0.70;99.90
25825;DHT22;13658;44.534;18.694;2023-02-01T01:30:18;0.70;99.90
25825;DHT22;13658;44.534;18.694;2023-02-01T01:32:44;0.70;99.90
25825;DHT22;13658;44.534;18.694;2023-02-01T01:35:11;0.70;99.90
25825;DHT22;13658;44.534;18.694;2023-02-01T01:37:37;0.60;99.90
25825;DHT22;13658;44.534;18.694;2023-02-01T01:40:04;0.60;99.90
25825;DHT22;13658;44.534;18.694;2023-02-01T01:42:30;0.70;99.90
25825;DHT22;13658;44.534;18.694;2023-02-01T01:47:50;0.70;99.90
25825;DHT22;13658;44.534;18.694;2023-02-01T01:50:19;0.70;99.90
25825;DHT22;13658;44.534;18.694;2023-02-01T01:52:51;0.60;99.90
25825;DHT22;13658;44.534;18.694;2023-02-01T01:55:20;0.50;99.90
25825;DHT22;13658;44.534;18.694;2023-02-01T01:58:25;0.40;99.90
25825;DHT22;13658;44.534;18.694;2023-02-01T02:00:45;0.30;99.90
25825;DHT22;13658;44.534;18.694;2023-02-01T02:03:27;0.30;99.90
25825;DHT22;13658;44.534;18.694;2023-02-01T02:05:57;0.20;99.90
25825;DHT22;13658;44.534;18.694;2023-02-01T02:08:25;0.30;99.90
25825;DHT22;13658;44.534;18.694;2023-02-01T02:10:52;0.20;99.90
25825;DHT22;13658;44.534;18.694;2023-02-01T02:13:33;0.20;99.90
25825;DHT22;13658;44.534;18.694;2023-02-01T02:16:04;0.20;99.90
25825;DHT22;13658;44.534;18.694;2023-02-01T02:18:41;0.30;99.90
25825;DHT22;13658;44.534;18.694;2023-02-01T02:42:52;0.60;99.90
25825;DHT22;13658;44.534;18.694;2023-02-01T02:45:50;0.60;99.90
25825;DHT22;13658;44.534;18.694;2023-02-01T02:51:28;0.60;99.90
25825;DHT22;13658;44.534;18.694;2023-02-01T02:54:21;0.60;99.90
25825;DHT22;13658;44.534;18.694;2023-02-01T02:57:09;0.40;99.90
25825;DHT22;13658;44.534;18.694;2023-02-01T02:59:58;0.40;99.90
25825;DHT22;13658;44.534;18.694;2023-02-01T03:02:46;0.40;99.90
25825;DHT22;13658;44.534;18.694;2023-02-01T03:05:41;0.40;99.90
25825;DHT22;13658;44.534;18.694;2023-02-01T03:08:25;0.40;99.90
25825;DHT22;13658;44.534;18.694;2023-02-01T03:11:14;0.50;99.90
25825;DHT22;13658;44.534;18.694;2023-02-01T03:13:56;0.40;99.90
25825;DHT22;13658;44.534;18.694;2023-02-01T03:16:28;0.40;99.90
25825;DHT22;13658;44.534;18.694;2023-02-01T03:19:19;0.30;99.90
25825;DHT22;13658;44.534;18.694;2023-02-01T03:22:14;0.30;99.90
25825;DHT22;13658;44.534;18.694;2023-02-01T03:24:40;0.20;99.90
25825;DHT22;13658;44.534;18.694;2023-02-01T03:27:35;0.10;99.90
25825;DHT22;13658;44.534;18.694;2023-02-01T03:30:09;0.20;99.90
25825;DHT22;13658;44.534;18.694;2023-02-01T03:32:38;0.20;99.90
25825;DHT22;13658;44.534;18.694;2023-02-01T03:36:15;0.30;99.90
25825;DHT22;13658;44.534;18.694;2023-02-01T03:43:52;0.30;99.90
25825;DHT22;13658;44.534;18.694;2023-02-01T03:46:33;0.30;99.90
25825;DHT22;13658;44.534;18.694;2023-02-01T03:49:06;0.30;99.90
25825;DHT22;13658;44.534;18.694;2023-02-01T03:51:37;0.30;99.90
25825;DHT22;13658;44.534;18.694;2023-02-01T03:54:06;0.30;99.90
25825;DHT22;13658;44.534;18.694;2023-02-01T03:56:37;0.30;99.90
25825;DHT22;13658;44.534;18.694;2023-02-01T03:59:04;0.30;99.90
25825;DHT22;13658;44.534;18.694;2023-02-01T04:01:33;0.30;99.90
25825;DHT22;13658;44.534;18.694;2023-02-01T04:04:00;0.20;99.90
25825;DHT22;13658;44.534;18.694;2023-02-01T04:06:26;0.20;99.90
25825;DHT22;13658;44.534;18.694;2023-02-01T04:08:57;0.20;99.90
25825;DHT22;13658;44.534;18.694;2023-02-01T04:11:22;0.20;99.90
25825;DHT22;13658;44.534;18.694;2023-02-01T04:13:48;0.20;99.90
25825;DHT22;13658;44.534;18.694;2023-02-01T04:16:14;0.20;99.90
25825;DHT22;13658;44.534;18.694;2023-02-01T04:18:40;0.30;99.90
25825;DHT22;13658;44.534;18.694;2023-02-01T04:21:06;0.20;99.90
25825;DHT22;13658;44.534;18.694;2023-02-01T04:23:32;0.20;99.90
25825;DHT22;13658;44.534;18.694;2023-02-01T04:26:02;0.30;99.90
25825;DHT22;13658;44.534;18.694;2023-02-01T04:28:29;0.30;99.90
25825;DHT22;13658;44.534;18.694;2023-02-01T04:30:55;0.30;99.90
25825;DHT22;13658;44.534;18.694;2023-02-01T04:33:21;0.40;99.90
25825;DHT22;13658;44.534;18.694;2023-02-01T04:35:47;0.30;99.90
25825;DHT22;13658;44.534;18.694;2023-02-01T04:38:13;0.30;99.90
25825;DHT22;13658;44.534;18.694;2023-02-01T04:40:39;0.30;99.90
25825;DHT22;13658;44.534;18.694;2023-02-01T04:43:05;0.20;99.90
25825;DHT22;13658;44.534;18.694;2023-02-01T04:45:31;0.20;99.90
25825;DHT22;13658;44.534;18.694;2023-02-01T04:47:57;0.10;99.90
25825;DHT22;13658;44.534;18.694;2023-02-01T04:50:23;0.10;99.90
25825;DHT22;13658;44.534;18.694;2023-02-01T04:52:49;0.00;99.90
25825;DHT22;13658;44.534;18.694;2023-02-01T04:55:15;0.10;99.90
25825;DHT22;13658;44.534;18.694;2023-02-01T04:57:41;0.10;99.90
25825;DHT22;13658;44.534;18.694;2023-02-01T05:00:08;0.10;99.90
25825;DHT22;13658;44.534;18.694;2023-02-01T05:02:35;0.10;99.90
25825;DHT22;13658;44.534;18.694;2023-02-01T05:05:01;0.10;99.90
25825;DHT22;13658;44.534;18.694;2023-02-01T05:07:27;0.20;99.90
25825;DHT22;13658;44.534;18.694;2023-02-01T05:09:53;0.20;99.90
25825;DHT22;13658;44.534;18.694;2023-02-01T05:12:19;0.20;99.90
25825;DHT22;13658;44.534;18.694;2023-02-01T05:15:04;0.20;99.90
25825;DHT22;13658;44.534;18.694;2023-02-01T05:17:30;0.20;99.90
25825;DHT22;13658;44.534;18.694;2023-02-01T05:19:56;0.30;99.90
25825;DHT22;13658;44.534;18.694;2023-02-01T05:22:22;0.20;99.90
25825;DHT22;13658;44.534;18.694;2023-02-01T05:24:48;0.20;99.90
25825;DHT22;13658;44.534;18.694;2023-02-01T05:27:14;0.10;99.90
25825;DHT22;13658;44.534;18.694;2023-02-01T05:29:40;0.10;99.90
25825;DHT22;13658;44.534;18.694;2023-02-01T05:32:06;0.10;99.90
25825;DHT22;13658;44.534;18.694;2023-02-01T05:34:32;0.00;99.90
25825;DHT22;13658;44.534;18.694;2023-02-01T05:36:58;0.10;99.90
25825;DHT22;13658;44.534;18.694;2023-02-01T05:39:24;0.20;99.90
25825;DHT22;13658;44.534;18.694;2023-02-01T05:41:50;0.20;99.90
25825;DHT22;13658;44.534;18.694;2023-02-01T05:44:16;0.20;99.90
25825;DHT22;13658;44.534;18.694;2023-02-01T05:46:42;0.20;99.90
25825;DHT22;13658;44.534;18.694;2023-02-01T05:49:08;0.20;99.90
25825;DHT22;13658;44.534;18.694;2023-02-01T05:51:34;0.30;99.90
25825;DHT22;13658;44.534;18.694;2023-02-01T05:54:00;0.20;99.90
25825;DHT22;13658;44.534;18.694;2023-02-01T05:56:26;0.30;99.90
25825;DHT22;13658;44.534;18.694;2023-02-01T05:58:52;0.30;99.90
25825;DHT22;13658;44.534;18.694;2023-02-01T06:01:17;0.30;99.90
25825;DHT22;13658;44.534;18.694;2023-02-01T06:03:43;0.20;99.90
25825;DHT22;13658;44.534;18.694;2023-02-01T06:06:09;0.20;99.90
25825;DHT22;13658;44.534;18.694;2023-02-01T06:08:35;0.10;99.90
25825;DHT22;13658;44.534;18.694;2023-02-01T06:11:04;0.10;99.90
25825;DHT22;13658;44.534;18.694;2023-02-01T06:13:30;0.00;99.90
25825;DHT22;13658;44.534;18.694;2023-02-01T06:15:56;0.10;99.90
25825;DHT22;13658;44.534;18.694;2023-02-01T06:18:25;0.10;99.90
25825;DHT22;13658;44.534;18.694;2023-02-01T06:20:56;0.20;99.90
25825;DHT22;13658;44.534;18.694;2023-02-01T06:23:23;0.20;99.90
25825;DHT22;13658;44.534;18.694;2023-02-01T06:25:57;0.20;99.90
25825;DHT22;13658;44.534;18.694;2023-02-01T06:28:24;0.20;99.90
25825;DHT22;13658;44.534;18.694;2023-02-01T06:30:50;0.20;99.90
25825;DHT22;13658;44.534;18.694;2023-02-01T06:33:16;0.20;99.90
25825;DHT22;13658;44.534;18.694;2023-02-01T06:35:43;0.30;99.90
25825;DHT22;13658;44.534;18.694;2023-02-01T06:38:13;0.20;99.90
25825;DHT22;13658;44.534;18.694;2023-02-01T06:40:40;0.20;99.90
25825;DHT22;13658;44.534;18.694;2023-02-01T06:43:08;0.20;99.90
25825;DHT22;13658;44.534;18.694;2023-02-01T06:45:34;0.10;99.90
25825;DHT22;13658;44.534;18.694;2023-02-01T06:47:59;0.20;99.90
25825;DHT22;13658;44.534;18.694;2023-02-01T06:50:28;0.20;99.90
25825;DHT22;13658;44.534;18.694;2023-02-01T06:52:55;0.30;99.90
25825;DHT22;13658;44.534;18.694;2023-02-01T06:55:21;0.30;99.90
25825;DHT22;13658;44.534;18.694;2023-02-01T06:57:47;0.50;99.90
25825;DHT22;13658;44.534;18.694;2023-02-01T07:00:13;0.60;99.90
25825;DHT22;13658;44.534;18.694;2023-02-01T07:02:39;0.80;99.90
25825;DHT22;13658;44.534;18.694;2023-02-01T07:05:05;0.80;99.90
25825;DHT22;13658;44.534;18.694;2023-02-01T07:07:31;0.90;99.90
25825;DHT22;13658;44.534;18.694;2023-02-01T07:09:57;0.90;99.90
25825;DHT22;13658;44.534;18.694;2023-02-01T07:12:23;0.90;99.90
25825;DHT22;13658;44.534;18.694;2023-02-01T07:14:49;0.80;99.90
25825;DHT22;13658;44.534;18.694;2023-02-01T07:17:15;0.90;99.90
25825;DHT22;13658;44.534;18.694;2023-02-01T07:19:41;1.00;99.90
25825;DHT22;13658;44.534;18.694;2023-02-01T07:22:07;0.90;99.90
25825;DHT22;13658;44.534;18.694;2023-02-01T07:24:34;0.80;99.90
25825;DHT22;13658;44.534;18.694;2023-02-01T07:27:00;0.70;99.90
25825;DHT22;13658;44.534;18.694;2023-02-01T07:29:25;0.60;99.90
25825;DHT22;13658;44.534;18.694;2023-02-01T07:31:52;0.60;99.90
25825;DHT22;13658;44.534;18.694;2023-02-01T07:34:17;0.60;99.90
25825;DHT22;13658;44.534;18.694;2023-02-01T07:36:43;0.70;99.90
25825;DHT22;13658;44.534;18.694;2023-02-01T07:39:09;0.70;99.90
25825;DHT22;13658;44.534;18.694;2023-02-01T07:41:35;0.80;99.90
25825;DHT22;13658;44.534;18.694;2023-02-01T07:44:01;0.90;99.90
25825;DHT22;13658;44.534;18.694;2023-02-01T07:46:27;1.00;99.90
25825;DHT22;13658;44.534;18.694;2023-02-01T07:48:53;1.20;99.90
25825;DHT22;13658;44.534;18.694;2023-02-01T07:51:19;1.30;99.90
25825;DHT22;13658;44.534;18.694;2023-02-01T07:53:45;1.40;99.90
25825;DHT22;13658;44.534;18.694;2023-02-01T07:56:19;1.60;99.90
25825;DHT22;13658;44.534;18.694;2023-02-01T07:58:49;1.80;99.90
25825;DHT22;13658;44.534;18.694;2023-02-01T08:01:21;2.10;99.90
25825;DHT22;13658;44.534;18.694;2023-02-01T08:03:51;2.30;99.90
25825;DHT22;13658;44.534;18.694;2023-02-01T08:06:17;2.40;99.90
25825;DHT22;13658;44.534;18.694;2023-02-01T08:08:46;2.50;99.90
25825;DHT22;13658;44.534;18.694;2023-02-01T08:11:13;2.50;99.90
25825;DHT22;13658;44.534;18.694;2023-02-01T08:13:39;2.60;99.90
25825;DHT22;13658;44.534;18.694;2023-02-01T08:16:07;2.60;99.90
25825;DHT22;13658;44.534;18.694;2023-02-01T08:18:34;2.50;99.90
25825;DHT22;13658;44.534;18.694;2023-02-01T08:23:30;2.70;99.90
25825;DHT22;13658;44.534;18.694;2023-02-01T08:26:06;3.20;99.90
25825;DHT22;13658;44.534;18.694;2023-02-01T08:28:33;4.00;99.90
25825;DHT22;13658;44.534;18.694;2023-02-01T08:31:03;4.90;99.90
25825;DHT22;13658;44.534;18.694;2023-02-01T08:33:29;5.60;99.90
25825;DHT22;13658;44.534;18.694;2023-02-01T08:35:55;6.40;99.90
25825;DHT22;13658;44.534;18.694;2023-02-01T08:38:21;6.80;99.90
25825;DHT22;13658;44.534;18.694;2023-02-01T08:40:46;7.30;99.90
25825;DHT22;13658;44.534;18.694;2023-02-01T08:43:12;7.90;99.90
25825;DHT22;13658;44.534;18.694;2023-02-01T08:45:40;8.60;99.90
25825;DHT22;13658;44.534;18.694;2023-02-01T08:48:06;9.00;99.90
25825;DHT22;13658;44.534;18.694;2023-02-01T08:50:32;9.30;99.90
25825;DHT22;13658;44.534;18.694;2023-02-01T08:52:58;9.30;99.90
25825;DHT22;13658;44.534;18.694;2023-02-01T08:55:24;9.80;99.90
25825;DHT22;13658;44.534;18.694;2023-02-01T08:57:50;10.10;99.90
25825;DHT22;13658;44.534;18.694;2023-02-01T09:00:17;10.50;99.90
25825;DHT22;13658;44.534;18.694;2023-02-01T09:02:44;10.60;99.90
25825;DHT22;13658;44.534;18.694;2023-02-01T09:05:10;11.60;99.90
25825;DHT22;13658;44.534;18.694;2023-02-01T09:07:37;12.30;99.90
25825;DHT22;13658;44.534;18.694;2023-02-01T09:10:04;12.70;99.90
25825;DHT22;13658;44.534;18.694;2023-02-01T09:12:31;13.10;99.90
25825;DHT22;13658;44.534;18.694;2023-02-01T09:14:58;13.60;99.90
25825;DHT22;13658;44.534;18.694;2023-02-01T09:17:28;13.80;99.90
25825;DHT22;13658;44.534;18.694;2023-02-01T09:19:55;14.30;99.90
25825;DHT22;13658;44.534;18.694;2023-02-01T09:22:21;14.50;99.90
25825;DHT22;13658;44.534;18.694;2023-02-01T09:24:47;15.10;99.90
25825;DHT22;13658;44.534;18.694;2023-02-01T09:27:12;15.20;99.90
25825;DHT22;13658;44.534;18.694;2023-02-01T09:29:38;14.90;99.90
25825;DHT22;13658;44.534;18.694;2023-02-01T09:32:04;14.20;99.90
25825;DHT22;13658;44.534;18.694;2023-02-01T09:34:33;13.80;99.90
25825;DHT22;13658;44.534;18.694;2023-02-01T09:37:00;13.80;99.90
25825;DHT22;13658;44.534;18.694;2023-02-01T09:39:25;14.20;99.90
25825;DHT22;13658;44.534;18.694;2023-02-01T09:47:02;14.90;99.90
25825;DHT22;13658;44.534;18.694;2023-02-01T09:49:31;15.30;99.90
25825;DHT22;13658;44.534;18.694;2023-02-01T09:52:01;15.80;99.90
25825;DHT22;13658;44.534;18.694;2023-02-01T09:54:59;16.00;99.90
25825;DHT22;13658;44.534;18.694;2023-02-01T09:57:53;15.90;99.90
25825;DHT22;13658;44.534;18.694;2023-02-01T10:00:26;16.00;99.90
25825;DHT22;13658;44.534;18.694;2023-02-01T10:02:54;16.30;99.90
25825;DHT22;13658;44.534;18.694;2023-02-01T10:08:25;16.70;99.90
25825;DHT22;13658;44.534;18.694;2023-02-01T10:11:09;17.00;99.90
25825;DHT22;13658;44.534;18.694;2023-02-01T10:19:03;15.70;99.90
25825;DHT22;13658;44.534;18.694;2023-02-01T10:21:52;15.20;99.90
25825;DHT22;13658;44.534;18.694;2023-02-01T10:24:42;14.10;99.90
25825;DHT22;13658;44.534;18.694;2023-02-01T10:27:29;14.00;99.90
25825;DHT22;13658;44.534;18.694;2023-02-01T10:32:40;13.10;99.90
25825;DHT22;13658;44.534;18.694;2023-02-01T10:35:15;12.50;99.90
25825;DHT22;13658;44.534;18.694;2023-02-01T10:37:42;12.30;99.90
25825;DHT22;13658;44.534;18.694;2023-02-01T10:40:17;12.20;99.90
25825;DHT22;13658;44.534;18.694;2023-02-01T10:42:45;12.40;99.90
25825;DHT22;13658;44.534;18.694;2023-02-01T10:45:18;13.00;99.90
25825;DHT22;13658;44.534;18.694;2023-02-01T10:47:45;13.90;99.90
25825;DHT22;13658;44.534;18.694;2023-02-01T10:50:34;13.90;99.90
25825;DHT22;13658;44.534;18.694;2023-02-01T10:53:29;12.80;99.90
25825;DHT22;13658;44.534;18.694;2023-02-01T10:55:57;12.70;99.90
25825;DHT22;13658;44.534;18.694;2023-02-01T10:58:31;12.30;99.90
25825;DHT22;13658;44.534;18.694;2023-02-01T11:01:00;12.60;99.90
25825;DHT22;13658;44.534;18.694;2023-02-01T11:04:03;13.10;99.90
25825;DHT22;13658;44.534;18.694;2023-02-01T11:06:43;13.00;99.90
25825;DHT22;13658;44.534;18.694;2023-02-01T11:11:54;13.20;99.90
25825;DHT22;13658;44.534;18.694;2023-02-01T11:14:40;12.90;99.90
25825;DHT22;13658;44.534;18.694;2023-02-01T11:17:38;12.60;99.90
25825;DHT22;13658;44.534;18.694;2023-02-01T11:20:21;12.60;99.90
25825;DHT22;13658;44.534;18.694;2023-02-01T11:22:56;12.20;99.90
25825;DHT22;13658;44.534;18.694;2023-02-01T11:25:23;11.70;99.90
25825;DHT22;13658;44.534;18.694;2023-02-01T11:27:51;11.40;99.90
25825;DHT22;13658;44.534;18.694;2023-02-01T11:30:41;11.30;99.90
25825;DHT22;13658;44.534;18.694;2023-02-01T11:33:18;11.40;99.90
25825;DHT22;13658;44.534;18.694;2023-02-01T11:35:46;11.40;99.90
25825;DHT22;13658;44.534;18.694;2023-02-01T11:38:29;11.30;99.90
25825;DHT22;13658;44.534;18.694;2023-02-01T11:41:41;11.40;99.90
25825;DHT22;13658;44.534;18.694;2023-02-01T11:43:57;11.70;99.90
25825;DHT22;13658;44.534;18.694;2023-02-01T11:46:34;11.60;99.90
25825;DHT22;13658;44.534;18.694;2023-02-01T11:49:23;11.60;99.90
25825;DHT22;13658;44.534;18.694;2023-02-01T11:54:27;11.50;99.90
25825;DHT22;13658;44.534;18.694;2023-02-01T11:57:07;11.70;99.90
25825;DHT22;13658;44.534;18.694;2023-02-01T12:13:14;11.60;99.90
25825;DHT22;13658;44.534;18.694;2023-02-01T12:16:14;11.60;99.90
25825;DHT22;13658;44.534;18.694;2023-02-01T12:18:53;11.60;99.90
25825;DHT22;13658;44.534;18.694;2023-02-01T12:21:31;11.50;99.90
25825;DHT22;13658;44.534;18.694;2023-02-01T12:26:50;11.50;99.90
25825;DHT22;13658;44.534;18.694;2023-02-01T12:29:26;11.50;99.90
25825;DHT22;13658;44.534;18.694;2023-02-01T12:37:48;11.20;99.90
25825;DHT22;13658;44.534;18.694;2023-02-01T12:43:38;11.10;99.90
25825;DHT22;13658;44.534;18.694;2023-02-01T12:51:39;11.00;99.90
25825;DHT22;13658;44.534;18.694;2023-02-01T12:57:01;11.00;99.90
25825;DHT22;13658;44.534;18.694;2023-02-01T12:59:47;11.00;99.90
25825;DHT22;13658;44.534;18.694;2023-02-01T13:02:48;11.00;99.90
25825;DHT22;13658;44.534;18.694;2023-02-01T13:05:21;11.00;99.90
25825;DHT22;13658;44.534;18.694;2023-02-01T13:07:56;10.90;99.90
25825;DHT22;13658;44.534;18.694;2023-02-01T13:10:32;10.90;99.90
25825;DHT22;13658;44.534;18.694;2023-02-01T13:13:14;10.90;99.90
25825;DHT22;13658;44.534;18.694;2023-02-01T13:15:49;11.00;99.90
25825;DHT22;13658;44.534;18.694;2023-02-01T13:18:19;10.90;99.90
25825;DHT22;13658;44.534;18.694;2023-02-01T13:21:17;10.90;99.90
25825;DHT22;13658;44.534;18.694;2023-02-01T13:23:46;10.80;99.90
25825;DHT22;13658;44.534;18.694;2023-02-01T13:26:13;10.50;99.90
25825;DHT22;13658;44.534;18.694;2023-02-01T13:44:34;10.00;99.90
25825;DHT22;13658;44.534;18.694;2023-02-01T13:47:09;9.90;99.90
25825;DHT22;13658;44.534;18.694;2023-02-01T13:49:39;9.90;99.90
25825;DHT22;13658;44.534;18.694;2023-02-01T13:52:27;9.80;99.90
25825;DHT22;13658;44.534;18.694;2023-02-01T13:55:03;9.80;99.90
25825;DHT22;13658;44.534;18.694;2023-02-01T13:57:41;9.70;99.90
25825;DHT22;13658;44.534;18.694;2023-02-01T14:10:57;9.70;99.90
25825;DHT22;13658;44.534;18.694;2023-02-01T14:13:30;9.60;99.90
25825;DHT22;13658;44.534;18.694;2023-02-01T14:21:32;9.50;99.90
25825;DHT22;13658;44.534;18.694;2023-02-01T14:26:51;9.40;99.90
25825;DHT22;13658;44.534;18.694;2023-02-01T14:29:36;9.40;99.90
25825;DHT22;13658;44.534;18.694;2023-02-01T14:32:19;9.40;99.90
25825;DHT22;13658;44.534;18.694;2023-02-01T14:45:23;9.30;99.90
25825;DHT22;13658;44.534;18.694;2023-02-01T14:47:41;9.30;99.90
25825;DHT22;13658;44.534;18.694;2023-02-01T14:50:10;9.30;99.90
25825;DHT22;13658;44.534;18.694;2023-02-01T14:52:40;9.30;99.90
25825;DHT22;13658;44.534;18.694;2023-02-01T14:57:57;9.10;99.90
25825;DHT22;13658;44.534;18.694;2023-02-01T15:00:27;9.00;99.90
25825;DHT22;13658;44.534;18.694;2023-02-01T15:03:12;8.90;99.90
25825;DHT22;13658;44.534;18.694;2023-02-01T15:05:41;8.80;99.90
25825;DHT22;13658;44.534;18.694;2023-02-01T15:08:19;8.80;99.90
25825;DHT22;13658;44.534;18.694;2023-02-01T15:10:50;8.70;99.90
25825;DHT22;13658;44.534;18.694;2023-02-01T15:13:23;8.70;99.90
25825;DHT22;13658;44.534;18.694;2023-02-01T15:16:12;8.50;99.90
25825;DHT22;13658;44.534;18.694;2023-02-01T15:18:39;8.40;99.90
25825;DHT22;13658;44.534;18.694;2023-02-01T15:21:06;8.40;99.90
25825;DHT22;13658;44.534;18.694;2023-02-01T15:23:33;8.30;99.90
25825;DHT22;13658;44.534;18.694;2023-02-01T15:25:59;8.30;99.90
25825;DHT22;13658;44.534;18.694;2023-02-01T15:28:26;8.30;99.90
25825;DHT22;13658;44.534;18.694;2023-02-01T15:30:56;8.20;99.90
25825;DHT22;13658;44.534;18.694;2023-02-01T15:33:23;8.20;99.90
25825;DHT22;13658;44.534;18.694;2023-02-01T15:35:54;8.10;99.90
25825;DHT22;13658;44.534;18.694;2023-02-01T15:41:05;8.00;99.90
25825;DHT22;13658;44.534;18.694;2023-02-01T15:46:09;7.80;99.90
25825;DHT22;13658;44.534;18.694;2023-02-01T15:48:40;7.80;99.90
25825;DHT22;13658;44.534;18.694;2023-02-01T15:51:13;7.70;99.90
25825;DHT22;13658;44.534;18.694;2023-02-01T15:53:44;7.60;99.90
25825;DHT22;13658;44.534;18.694;2023-02-01T15:56:12;7.40;99.90
25825;DHT22;13658;44.534;18.694;2023-02-01T15:58:42;7.20;99.90
25825;DHT22;13658;44.534;18.694;2023-02-01T16:01:12;7.20;99.90
25825;DHT22;13658;44.534;18.694;2023-02-01T16:03:43;7.10;99.90
25825;DHT22;13658;44.534;18.694;2023-02-01T16:06:30;7.00;99.90
25825;DHT22;13658;44.534;18.694;2023-02-01T16:09:08;6.90;99.90
25825;DHT22;13658;44.534;18.694;2023-02-01T16:12:02;6.80;99.90
25825;DHT22;13658;44.534;18.694;2023-02-01T16:14:28;6.70;99.90
25825;DHT22;13658;44.534;18.694;2023-02-01T16:16:56;6.70;99.90
25825;DHT22;13658;44.534;18.694;2023-02-01T16:19:22;6.60;99.90
25825;DHT22;13658;44.534;18.694;2023-02-01T16:21:54;6.60;99.90
25825;DHT22;13658;44.534;18.694;2023-02-01T16:24:20;6.50;99.90
25825;DHT22;13658;44.534;18.694;2023-02-01T16:26:48;6.40;99.90
25825;DHT22;13658;44.534;18.694;2023-02-01T16:29:14;6.40;99.90
25825;DHT22;13658;44.534;18.694;2023-02-01T16:31:41;6.30;99.90
25825;DHT22;13658;44.534;18.694;2023-02-01T16:34:14;6.20;99.90
25825;DHT22;13658;44.534;18.694;2023-02-01T16:36:43;6.20;99.90
25825;DHT22;13658;44.534;18.694;2023-02-01T16:39:11;6.10;99.90
25825;DHT22;13658;44.534;18.694;2023-02-01T16:41:38;6.10;99.90
25825;DHT22;13658;44.534;18.694;2023-02-01T16:44:05;5.90;99.90
25825;DHT22;13658;44.534;18.694;2023-02-01T16:46:35;5.90;99.90
25825;DHT22;13658;44.534;18.694;2023-02-01T16:49:01;5.90;99.90
25825;DHT22;13658;44.534;18.694;2023-02-01T16:51:30;5.80;99.90
25825;DHT22;13658;44.534;18.694;2023-02-01T16:53:59;5.70;99.90
25825;DHT22;13658;44.534;18.694;2023-02-01T16:56:31;5.60;99.90
25825;DHT22;13658;44.534;18.694;2023-02-01T16:58:57;5.70;99.90
25825;DHT22;13658;44.534;18.694;2023-02-01T17:01:23;5.60;99.90
25825;DHT22;13658;44.534;18.694;2023-02-01T17:03:50;5.50;99.90
25825;DHT22;13658;44.534;18.694;2023-02-01T17:06:22;5.50;99.90
25825;DHT22;13658;44.534;18.694;2023-02-01T17:08:55;5.40;99.90
25825;DHT22;13658;44.534;18.694;2023-02-01T17:11:21;5.40;99.90
25825;DHT22;13658;44.534;18.694;2023-02-01T17:13:47;5.40;99.90
25825;DHT22;13658;44.534;18.694;2023-02-01T17:16:26;5.30;99.90
25825;DHT22;13658;44.534;18.694;2023-02-01T17:18:58;5.20;99.90
25825;DHT22;13658;44.534;18.694;2023-02-01T17:21:28;5.10;99.90
25825;DHT22;13658;44.534;18.694;2023-02-01T17:23:54;5.10;99.90
25825;DHT22;13658;44.534;18.694;2023-02-01T17:26:21;5.10;99.90
25825;DHT22;13658;44.534;18.694;2023-02-01T17:28:47;5.10;99.90
25825;DHT22;13658;44.534;18.694;2023-02-01T17:31:14;5.00;99.90
25825;DHT22;13658;44.534;18.694;2023-02-01T17:33:44;5.00;99.90
25825;DHT22;13658;44.534;18.694;2023-02-01T17:36:13;4.90;99.90
25825;DHT22;13658;44.534;18.694;2023-02-01T17:38:39;4.80;99.90
25825;DHT22;13658;44.534;18.694;2023-02-01T17:41:05;4.80;99.90
25825;DHT22;13658;44.534;18.694;2023-02-01T17:43:31;4.80;99.90
25825;DHT22;13658;44.534;18.694;2023-02-01T17:46:13;4.80;99.90
25825;DHT22;13658;44.534;18.694;2023-02-01T17:48:39;4.80;99.90
25825;DHT22;13658;44.534;18.694;2023-02-01T17:51:15;4.60;99.90
25825;DHT22;13658;44.534;18.694;2023-02-01T17:53:41;4.40;99.90
25825;DHT22;13658;44.534;18.694;2023-02-01T17:56:18;4.30;99.90
25825;DHT22;13658;44.534;18.694;2023-02-01T17:58:45;4.20;99.90
25825;DHT22;13658;44.534;18.694;2023-02-01T18:01:22;4.10;99.90
25825;DHT22;13658;44.534;18.694;2023-02-01T18:03:48;4.10;99.90
25825;DHT22;13658;44.534;18.694;2023-02-01T18:06:17;4.10;99.90
25825;DHT22;13658;44.534;18.694;2023-02-01T18:08:44;4.10;99.90
25825;DHT22;13658;44.534;18.694;2023-02-01T18:11:21;4.00;99.90
25825;DHT22;13658;44.534;18.694;2023-02-01T18:13:49;4.00;99.90
25825;DHT22;13658;44.534;18.694;2023-02-01T18:16:25;3.90;99.90